createdAt,value
2022-11-30T00:00:38.391Z,15.68
2022-11-30T00:03:05.872Z,19.35
2022-11-30T00:05:33.645Z,18.75
2022-11-30T00:08:03.574Z,20.48
2022-11-30T00:10:30.674Z,17.50
2022-11-30T00:12:57.632Z,20.45
2022-11-30T00:15:24.697Z,23.60
2022-11-30T00:17:56.723Z,20.17
2022-11-30T00:20:24.255Z,20.02
2022-11-30T00:22:51.735Z,22.70
2022-11-30T00:25:18.854Z,21.77
2022-11-30T00:27:45.645Z,18.73
2022-11-30T00:30:13.363Z,18.77
2022-11-30T00:32:40.413Z,21.98
2022-11-30T00:35:07.754Z,23.80
2022-11-30T00:37:35.364Z,18.98
2022-11-30T00:40:02.694Z,19.85
2022-11-30T00:42:29.826Z,18.10
2022-11-30T00:44:56.958Z,20.27
2022-11-30T00:47:23.853Z,24.67
2022-11-30T00:49:51.253Z,18.67
2022-11-30T00:52:18.115Z,23.77
2022-11-30T00:54:45.799Z,25.27
2022-11-30T00:57:13.224Z,21.80
2022-11-30T00:59:40.174Z,20.58
2022-11-30T01:02:07.260Z,22.05
2022-11-30T01:04:34.414Z,17.70
2022-11-30T01:07:01.520Z,24.55
2022-11-30T01:09:28.421Z,24.92
2022-11-30T01:11:55.614Z,25.67
2022-11-30T01:14:22.542Z,22.33
2022-11-30T01:16:55.942Z,22.15
2022-11-30T01:19:24.473Z,28.10
2022-11-30T01:21:51.735Z,23.50
2022-11-30T01:24:20.374Z,27.45
2022-11-30T01:26:47.712Z,29.05
2022-11-30T01:29:15.493Z,29.13
2022-11-30T01:31:42.593Z,26.25
2022-11-30T01:34:10.414Z,27.88
2022-11-30T01:36:39.103Z,31.63
2022-11-30T01:39:09.595Z,28.77
2022-11-30T01:41:37.285Z,32.38
2022-11-30T01:44:05.174Z,30.75
2022-11-30T01:47:00.133Z,35.95
2022-11-30T01:49:32.215Z,33.40
2022-11-30T01:52:07.647Z,37.75
2022-11-30T01:54:39.513Z,32.47
2022-11-30T01:57:15.252Z,33.13
2022-11-30T01:59:42.294Z,30.45
2022-11-30T02:02:09.268Z,30.40
2022-11-30T02:04:37.544Z,26.98
2022-11-30T02:07:06.365Z,27.40
2022-11-30T02:09:40.604Z,27.30
2022-11-30T02:12:09.624Z,23.23
2022-11-30T02:14:48.131Z,35.08
2022-11-30T02:17:43.334Z,26.33
2022-11-30T02:20:28.424Z,26.35
2022-11-30T02:23:19.413Z,32.70
2022-11-30T02:25:49.544Z,39.08
2022-11-30T02:28:35.574Z,41.53
2022-11-30T02:31:04.671Z,38.90
2022-11-30T02:33:32.674Z,45.08
2022-11-30T02:35:59.909Z,38.33
2022-11-30T02:38:28.504Z,30.60
2022-11-30T02:40:55.603Z,34.25
2022-11-30T02:43:25.494Z,39.28
2022-11-30T02:46:12.324Z,36.70
2022-11-30T02:48:44.924Z,35.25
2022-11-30T02:53:41.156Z,31.58
2022-11-30T02:56:08.474Z,26.38
2022-11-30T02:58:35.775Z,30.30
2022-11-30T03:01:02.877Z,35.28
2022-11-30T03:03:30.008Z,38.60
2022-11-30T03:05:56.993Z,33.10
2022-11-30T03:08:24.294Z,32.42
2022-11-30T03:10:51.474Z,35.00
2022-11-30T03:13:18.785Z,32.30
2022-11-30T03:15:46.397Z,32.78
2022-11-30T03:18:14.457Z,29.10
2022-11-30T03:20:42.584Z,29.13
2022-11-30T03:23:09.865Z,29.00
2022-11-30T03:25:36.905Z,34.45
2022-11-30T03:28:03.895Z,30.10
2022-11-30T03:30:30.981Z,32.13
2022-11-30T03:32:58.234Z,26.52
2022-11-30T03:35:25.215Z,34.38
2022-11-30T03:37:52.064Z,35.08
2022-11-30T03:40:19.273Z,31.08
2022-11-30T03:42:46.174Z,32.15
2022-11-30T03:45:13.304Z,36.05
2022-11-30T03:47:40.539Z,36.90
2022-11-30T03:50:08.265Z,30.45
2022-11-30T03:52:35.262Z,30.15
2022-11-30T03:55:02.555Z,30.55
2022-11-30T03:57:29.678Z,39.42
2022-11-30T03:59:56.894Z,35.00
2022-11-30T04:02:24.056Z,29.33
2022-11-30T04:04:51.135Z,31.40
2022-11-30T04:07:18.216Z,30.33
2022-11-30T04:09:45.174Z,31.80
2022-11-30T04:12:12.769Z,34.17
2022-11-30T04:14:39.825Z,37.05
2022-11-30T04:17:07.044Z,38.60
2022-11-30T04:19:33.825Z,37.47
2022-11-30T04:22:00.874Z,34.42
2022-11-30T04:24:27.864Z,34.75
2022-11-30T04:26:55.176Z,30.45
2022-11-30T04:29:22.596Z,33.08
2022-11-30T04:31:49.892Z,28.88
2022-11-30T04:34:17.034Z,27.52
2022-11-30T04:36:44.002Z,27.90
2022-11-30T04:39:11.284Z,32.80
2022-11-30T04:41:39.833Z,25.02
2022-11-30T04:44:07.332Z,29.77
2022-11-30T04:46:35.119Z,32.00
2022-11-30T04:49:02.034Z,28.00
2022-11-30T04:51:29.144Z,26.75
2022-11-30T04:53:56.374Z,29.77
2022-11-30T04:56:23.730Z,32.25
2022-11-30T04:58:50.604Z,25.85
2022-11-30T05:01:17.738Z,28.90
2022-11-30T05:03:44.584Z,26.30
2022-11-30T05:06:11.543Z,29.60
2022-11-30T05:08:38.403Z,28.67
2022-11-30T05:11:06.199Z,25.33
2022-11-30T05:13:33.378Z,31.35
2022-11-30T05:16:00.415Z,33.38
2022-11-30T05:18:27.444Z,32.78
2022-11-30T05:20:54.474Z,39.63
2022-11-30T05:23:22.003Z,34.83
2022-11-30T05:25:50.067Z,31.75
2022-11-30T05:28:17.460Z,30.52
2022-11-30T05:30:44.932Z,26.38
2022-11-30T05:33:12.034Z,35.90
2022-11-30T05:35:39.353Z,34.58
2022-11-30T05:38:07.734Z,29.98
2022-11-30T05:40:34.835Z,31.00
2022-11-30T05:43:02.493Z,28.63
2022-11-30T05:45:30.473Z,35.42
2022-11-30T05:47:57.706Z,31.20
2022-11-30T05:50:25.354Z,31.95
2022-11-30T05:53:01.283Z,32.75
2022-11-30T05:55:30.142Z,28.90
2022-11-30T05:57:57.203Z,30.40
2022-11-30T06:00:24.511Z,29.75
2022-11-30T06:02:58.907Z,24.65
2022-11-30T06:05:29.373Z,31.05
2022-11-30T06:08:00.901Z,32.13
2022-11-30T06:10:28.631Z,34.70
2022-11-30T06:12:56.443Z,30.48
2022-11-30T06:15:23.683Z,35.53
2022-11-30T06:17:51.340Z,33.35
2022-11-30T06:20:18.699Z,34.13
2022-11-30T06:22:47.032Z,30.70
2022-11-30T06:25:15.413Z,36.75
2022-11-30T06:27:43.895Z,34.22
2022-11-30T06:30:11.884Z,32.22
2022-11-30T06:32:39.305Z,39.13
2022-11-30T06:35:07.084Z,39.17
2022-11-30T06:37:35.563Z,36.70
2022-11-30T06:40:07.326Z,37.72
2022-11-30T06:42:35.472Z,32.50
2022-11-30T06:45:02.473Z,33.70
2022-11-30T06:47:29.876Z,32.03
2022-11-30T06:49:56.823Z,30.00
2022-11-30T06:52:23.963Z,30.75
2022-11-30T06:54:50.936Z,37.58
2022-11-30T06:57:18.863Z,37.05
2022-11-30T06:59:46.839Z,32.65
2022-11-30T07:02:18.221Z,32.33
2022-11-30T07:04:46.552Z,33.05
2022-11-30T07:07:13.914Z,45.15
2022-11-30T07:09:41.055Z,44.15
2022-11-30T07:12:08.401Z,46.97
2022-11-30T07:14:35.792Z,89.18
2022-11-30T07:17:04.991Z,103.13
2022-11-30T07:19:34.854Z,80.97
2022-11-30T07:22:02.523Z,69.22
2022-11-30T07:24:48.940Z,71.30
2022-11-30T07:27:16.553Z,50.13
2022-11-30T07:29:44.215Z,56.50
2022-11-30T07:32:11.541Z,60.33
2022-11-30T07:34:38.678Z,54.35
2022-11-30T07:37:06.330Z,49.60
2022-11-30T07:39:33.169Z,46.58
2022-11-30T07:42:00.353Z,47.65
2022-11-30T07:44:28.334Z,46.97
2022-11-30T07:46:55.413Z,40.70
2022-11-30T07:49:22.391Z,47.22
2022-11-30T07:51:49.525Z,42.05
2022-11-30T07:54:16.764Z,45.65
2022-11-30T07:56:43.498Z,39.33
2022-11-30T07:59:10.526Z,38.03
2022-11-30T08:01:37.519Z,44.90
2022-11-30T08:04:05.313Z,44.40
2022-11-30T08:06:32.771Z,40.22
2022-11-30T08:09:02.694Z,31.88
2022-11-30T08:11:31.791Z,34.15
2022-11-30T08:13:59.479Z,35.03
2022-11-30T08:16:29.268Z,33.92
2022-11-30T08:18:58.154Z,31.88
2022-11-30T08:21:25.965Z,31.13
2022-11-30T08:23:58.549Z,33.28
2022-11-30T08:26:31.505Z,36.85
2022-11-30T08:29:00.037Z,38.90
2022-11-30T08:31:29.907Z,36.72
2022-11-30T08:34:05.615Z,32.85
2022-11-30T08:36:33.777Z,29.35
2022-11-30T08:39:03.054Z,37.47
2022-11-30T08:41:30.492Z,34.30
2022-11-30T08:43:57.845Z,38.17
2022-11-30T08:52:17.384Z,36.60
2022-11-30T08:57:33.672Z,116.35
2022-11-30T09:00:00.974Z,73.22
2022-11-30T09:02:27.948Z,48.13
2022-11-30T09:04:55.039Z,43.78
2022-11-30T09:07:22.208Z,43.25
2022-11-30T09:09:49.344Z,49.70
2022-11-30T09:12:16.333Z,53.70
2022-11-30T09:14:45.246Z,47.97
2022-11-30T09:17:12.217Z,40.75
2022-11-30T09:19:39.793Z,58.10
2022-11-30T09:22:06.924Z,49.58
2022-11-30T09:24:33.944Z,31.42
2022-11-30T09:27:01.105Z,32.55
2022-11-30T09:29:28.659Z,29.58
2022-11-30T09:31:55.884Z,34.63
2022-11-30T09:34:23.148Z,30.52
2022-11-30T09:36:50.357Z,35.30
2022-11-30T09:39:17.795Z,33.65
2022-11-30T09:42:06.564Z,34.53
2022-11-30T09:44:55.800Z,31.48
2022-11-30T09:47:48.674Z,30.45
2022-11-30T09:50:20.076Z,32.00
2022-11-30T09:52:50.339Z,36.92
2022-11-30T09:55:24.974Z,31.95
2022-11-30T09:57:57.269Z,30.33
2022-11-30T10:00:25.575Z,34.28
2022-11-30T10:02:56.862Z,34.15
2022-11-30T10:05:28.577Z,35.60
2022-11-30T10:07:55.969Z,36.33
2022-11-30T10:10:40.765Z,29.63
2022-11-30T10:13:28.222Z,31.95
2022-11-30T10:16:10.487Z,27.90
2022-11-30T10:18:52.964Z,27.73
2022-11-30T10:21:40.814Z,30.95
2022-11-30T10:24:19.814Z,29.83
2022-11-30T10:26:54.819Z,33.47
2022-11-30T10:29:35.757Z,32.92
2022-11-30T10:32:17.902Z,29.00
2022-11-30T10:34:47.682Z,34.72
2022-11-30T10:37:22.441Z,33.85
2022-11-30T10:39:55.917Z,38.90
2022-11-30T10:42:27.566Z,36.33
2022-11-30T10:45:00.970Z,36.08
2022-11-30T10:47:34.068Z,33.72
2022-11-30T10:50:01.556Z,38.38
2022-11-30T10:52:49.435Z,36.88
2022-11-30T10:55:22.847Z,39.00
2022-11-30T10:57:55.155Z,38.75
2022-11-30T11:00:22.875Z,37.67
2022-11-30T11:02:51.044Z,38.53
2022-11-30T11:05:18.499Z,36.80
2022-11-30T11:08:04.462Z,36.33
2022-11-30T11:10:36.821Z,27.65
2022-11-30T11:13:05.466Z,31.75
2022-11-30T11:15:34.475Z,26.50
2022-11-30T11:18:21.977Z,28.65
2022-11-30T11:20:53.956Z,29.55
2022-11-30T11:23:32.746Z,28.88
2022-11-30T11:25:59.993Z,26.30
2022-11-30T11:28:27.505Z,28.70
2022-11-30T11:30:56.375Z,25.65
2022-11-30T11:33:27.989Z,24.60
2022-11-30T11:36:15.553Z,19.30
2022-11-30T11:38:48.442Z,19.77
2022-11-30T11:41:24.535Z,16.77
2022-11-30T11:44:00.448Z,19.40
2022-11-30T11:46:27.684Z,19.95
2022-11-30T11:49:05.814Z,21.98
2022-11-30T11:51:37.696Z,22.17
2022-11-30T11:54:17.752Z,18.95
2022-11-30T11:56:44.558Z,22.25
2022-11-30T11:59:19.530Z,22.48
2022-11-30T12:02:08.472Z,22.20
2022-11-30T12:04:51.530Z,23.73
2022-11-30T12:07:36.687Z,22.42
2022-11-30T12:12:55.317Z,19.85
2022-11-30T12:16:11.695Z,25.92
2022-11-30T12:18:38.560Z,27.80
2022-11-30T12:21:12.168Z,27.30
2022-11-30T12:23:45.508Z,25.92
2022-11-30T12:26:18.387Z,26.35
2022-11-30T12:29:29.952Z,27.40
2022-11-30T12:32:02.051Z,26.65
2022-11-30T12:34:49.516Z,25.27
2022-11-30T12:37:45.829Z,26.00
2022-11-30T12:43:20.723Z,51.72
2022-11-30T12:45:47.904Z,26.70
2022-11-30T12:48:27.512Z,28.83
2022-11-30T12:51:30.077Z,31.23
2022-11-30T12:54:04.053Z,26.33
2022-11-30T12:56:30.853Z,28.85
2022-11-30T12:58:57.442Z,29.75
2022-11-30T13:02:13.833Z,34.42
2022-11-30T13:04:57.651Z,32.28
2022-11-30T13:07:33.803Z,33.03
2022-11-30T13:10:08.956Z,32.75
2022-11-30T13:12:37.663Z,34.97
2022-11-30T13:15:17.136Z,34.08
2022-11-30T13:17:44.997Z,33.47
2022-11-30T13:20:42.672Z,28.90
2022-11-30T13:23:21.646Z,30.15
2022-11-30T13:26:18.868Z,29.30
2022-11-30T13:28:57.885Z,32.20
2022-11-30T13:31:26.410Z,36.50
2022-11-30T13:33:52.999Z,34.47
2022-11-30T13:36:33.749Z,28.67
2022-11-30T13:39:19.922Z,29.23
2022-11-30T13:41:49.411Z,32.00
2022-11-30T13:44:40.696Z,32.58
2022-11-30T13:47:18.371Z,29.13
2022-11-30T13:49:45.734Z,29.85
2022-11-30T13:52:22.604Z,31.17
2022-11-30T13:54:53.933Z,32.80
2022-11-30T13:57:29.674Z,30.38
2022-11-30T13:59:58.130Z,32.83
2022-11-30T14:02:30.835Z,31.15
2022-11-30T14:05:16.094Z,36.53
2022-11-30T14:10:44.278Z,35.78
2022-11-30T14:13:10.880Z,27.83
2022-11-30T14:15:41.956Z,31.42
2022-11-30T14:18:08.652Z,30.08
2022-11-30T14:20:52.781Z,31.00
2022-11-30T14:23:43.720Z,32.85
2022-11-30T14:26:16.172Z,32.63
2022-11-30T14:28:57.770Z,31.88
2022-11-30T14:31:27.300Z,32.55
2022-11-30T14:34:10.238Z,46.92
2022-11-30T14:36:41.934Z,36.78
2022-11-30T14:39:33.256Z,35.95
2022-11-30T14:42:00.982Z,45.42
2022-11-30T14:44:28.187Z,38.60
2022-11-30T14:46:55.252Z,39.92
2022-11-30T14:49:23.727Z,41.83
2022-11-30T14:51:59.164Z,40.13
2022-11-30T14:54:53.324Z,40.55
2022-11-30T14:57:30.103Z,38.05
2022-11-30T14:59:57.119Z,59.95
2022-11-30T15:02:29.055Z,44.53
2022-11-30T15:04:57.303Z,43.25
2022-11-30T15:07:25.209Z,38.38
2022-11-30T15:10:01.644Z,42.65
2022-11-30T15:12:30.670Z,37.55
2022-11-30T15:23:22.835Z,37.30
2022-11-30T15:25:53.427Z,42.67
2022-11-30T15:32:46.436Z,40.40
2022-11-30T15:35:20.266Z,32.88
2022-11-30T15:45:56.447Z,39.70
2022-11-30T15:56:40.516Z,34.35
2022-11-30T15:59:18.421Z,32.90
2022-11-30T16:02:01.790Z,32.58
2022-11-30T16:04:50.242Z,35.35
2022-11-30T16:07:18.004Z,36.35
2022-11-30T16:09:45.073Z,37.10
2022-11-30T16:12:30.711Z,33.15
2022-11-30T16:14:57.687Z,32.88
2022-11-30T16:17:24.504Z,41.38
2022-11-30T16:19:51.290Z,39.75
2022-11-30T16:22:17.985Z,39.20
2022-11-30T16:24:44.734Z,42.53
2022-11-30T16:27:17.511Z,49.85
2022-11-30T16:29:50.673Z,52.17
2022-11-30T16:32:19.521Z,46.35
2022-11-30T16:34:48.211Z,48.17
2022-11-30T16:37:15.721Z,48.90
2022-11-30T16:39:42.741Z,40.80
2022-11-30T16:42:12.930Z,43.30
2022-11-30T16:44:40.051Z,45.85
2022-11-30T16:47:06.881Z,64.50
2022-11-30T16:49:33.795Z,54.72
2022-11-30T16:52:00.962Z,52.38
2022-11-30T16:54:28.616Z,51.40
2022-11-30T16:56:55.838Z,59.10
2022-11-30T16:59:22.551Z,45.65
2022-11-30T17:01:53.492Z,53.45
2022-11-30T17:04:33.011Z,49.97
2022-11-30T17:07:02.980Z,56.78
2022-11-30T17:09:30.709Z,56.67
2022-11-30T17:11:58.259Z,55.20
2022-11-30T17:14:25.553Z,78.85
2022-11-30T17:16:52.529Z,102.07
2022-11-30T17:19:19.769Z,83.38
2022-11-30T17:22:05.677Z,79.00
2022-11-30T17:24:32.843Z,86.90
2022-11-30T17:26:59.946Z,57.75
2022-11-30T17:29:26.751Z,57.80
2022-11-30T17:31:53.956Z,52.60
2022-11-30T17:34:21.001Z,50.75
2022-11-30T17:36:51.079Z,48.30
2022-11-30T17:39:18.289Z,64.03
2022-11-30T17:41:45.070Z,58.63
2022-11-30T17:44:13.454Z,78.57
2022-11-30T17:46:45.314Z,62.00
2022-11-30T17:49:14.999Z,53.22
2022-11-30T17:51:41.840Z,56.22
2022-11-30T17:54:09.051Z,65.75
2022-11-30T17:56:36.034Z,55.13
2022-11-30T17:59:03.299Z,63.47
2022-11-30T18:06:15.132Z,66.47
2022-11-30T18:20:11.840Z,55.42
2022-11-30T18:22:38.634Z,47.88
2022-11-30T18:25:05.703Z,56.78
2022-11-30T18:27:32.509Z,55.28
2022-11-30T18:29:59.204Z,48.92
2022-11-30T18:32:26.077Z,48.70
2022-11-30T18:34:52.705Z,53.80
2022-11-30T18:37:19.492Z,61.50
2022-11-30T18:39:46.168Z,109.05
2022-11-30T18:46:31.940Z,62.35
2022-11-30T18:48:59.694Z,57.95
2022-11-30T18:51:28.552Z,67.18
2022-11-30T18:58:01.257Z,41.60
2022-11-30T19:00:29.167Z,44.22
2022-11-30T19:02:55.988Z,39.88
2022-11-30T19:05:32.018Z,47.42
2022-11-30T19:07:59.828Z,50.78
2022-11-30T19:10:26.705Z,49.50
2022-11-30T19:12:53.439Z,41.55
2022-11-30T19:15:31.657Z,47.25
2022-11-30T19:25:30.628Z,58.15
2022-11-30T19:27:57.587Z,57.95
2022-11-30T19:30:26.348Z,69.57
2022-11-30T19:32:53.812Z,63.42
2022-11-30T19:35:23.114Z,80.28
2022-11-30T19:37:52.200Z,112.50
2022-11-30T19:40:19.225Z,53.33
2022-11-30T19:42:46.096Z,86.15
2022-11-30T19:45:12.904Z,47.88
2022-11-30T19:47:39.933Z,48.47
2022-11-30T19:50:07.208Z,49.05
2022-11-30T19:52:34.187Z,50.13
2022-11-30T19:55:00.931Z,51.38
2022-11-30T19:57:27.801Z,45.22
2022-11-30T19:59:54.851Z,44.42
2022-11-30T20:02:21.820Z,40.88
2022-11-30T20:04:49.120Z,45.28
2022-11-30T20:07:16.016Z,50.05
2022-11-30T20:09:42.963Z,49.17
2022-11-30T20:12:12.793Z,45.97
2022-11-30T20:14:39.942Z,57.17
2022-11-30T20:17:06.936Z,48.15
2022-11-30T20:19:34.213Z,53.83
2022-11-30T20:22:04.759Z,54.38
2022-11-30T20:24:31.640Z,53.15
2022-11-30T20:26:58.602Z,56.42
2022-11-30T20:29:25.529Z,46.97
2022-11-30T20:31:52.442Z,57.15
2022-11-30T20:34:19.355Z,54.85
2022-11-30T20:36:46.849Z,49.28
2022-11-30T20:39:13.850Z,54.22
2022-11-30T20:41:40.802Z,72.38
2022-11-30T20:44:07.660Z,51.97
2022-11-30T20:46:35.755Z,60.17
2022-11-30T20:49:04.513Z,51.55
2022-11-30T20:51:33.511Z,54.38
2022-11-30T20:54:05.558Z,55.58
2022-11-30T20:56:33.403Z,59.45
2022-11-30T20:59:06.357Z,61.88
2022-11-30T21:01:33.739Z,55.47
2022-11-30T21:04:01.412Z,62.55
2022-11-30T21:06:29.532Z,57.22
2022-11-30T21:08:56.344Z,64.40
2022-11-30T21:11:23.553Z,58.70
2022-11-30T21:13:51.029Z,62.25
2022-11-30T21:16:26.845Z,66.22
2022-11-30T21:18:54.920Z,65.57
2022-11-30T21:21:24.435Z,69.72
2022-11-30T21:23:51.844Z,64.97
2022-11-30T21:26:23.264Z,67.57
2022-11-30T21:28:54.462Z,68.82
2022-11-30T21:31:22.533Z,75.88
2022-11-30T21:33:53.305Z,86.60
2022-11-30T21:36:21.955Z,87.53
2022-11-30T21:38:53.668Z,75.95
2022-11-30T21:41:20.790Z,73.20
2022-11-30T21:43:47.607Z,67.70
2022-11-30T21:46:16.495Z,76.68
2022-11-30T21:48:45.354Z,68.20
2022-11-30T21:51:17.267Z,71.68
2022-11-30T21:53:49.568Z,75.68
2022-11-30T21:56:26.437Z,86.82
2022-11-30T21:58:53.507Z,89.30
2022-11-30T22:01:34.364Z,93.38
2022-11-30T22:04:02.244Z,84.47
2022-11-30T22:06:30.395Z,86.18
2022-11-30T22:09:03.597Z,80.93
2022-11-30T22:11:30.903Z,90.72
2022-11-30T22:13:57.821Z,84.30
2022-11-30T22:16:27.020Z,100.97
2022-11-30T22:18:56.758Z,84.70
2022-11-30T22:21:26.183Z,86.05
2022-11-30T22:23:55.245Z,77.40
2022-11-30T22:26:27.723Z,73.70
2022-11-30T22:28:56.788Z,101.32
2022-11-30T22:31:34.701Z,92.40
2022-11-30T22:34:01.877Z,83.95
2022-11-30T22:36:30.448Z,71.90
2022-11-30T22:39:02.648Z,64.93
2022-11-30T22:41:32.557Z,102.88
2022-11-30T22:43:59.487Z,103.50
2022-11-30T22:46:28.414Z,91.60
2022-11-30T22:48:55.745Z,81.68
2022-11-30T22:51:26.942Z,96.97
2022-11-30T22:53:54.476Z,123.40
2022-11-30T22:56:26.808Z,129.75
2022-11-30T22:58:55.433Z,100.63
2022-11-30T23:01:24.351Z,97.80
2022-11-30T23:03:53.835Z,86.95
2022-11-30T23:06:21.920Z,108.65
2022-11-30T23:08:50.244Z,113.65
2022-11-30T23:11:19.659Z,91.10
2022-11-30T23:13:46.699Z,150.45
2022-11-30T23:16:14.878Z,179.55
2022-11-30T23:18:44.456Z,136.88
2022-11-30T23:21:16.545Z,96.50
2022-11-30T23:23:44.031Z,102.72
2022-11-30T23:26:13.337Z,125.47
2022-11-30T23:28:41.564Z,113.88
2022-11-30T23:31:34.350Z,124.30
2022-11-30T23:34:00.253Z,131.90
2022-11-30T23:36:26.920Z,118.82
2022-11-30T23:38:56.871Z,108.43
2022-11-30T23:41:24.172Z,112.20
2022-11-30T23:43:50.950Z,143.60
2022-11-30T23:46:18.121Z,159.35
2022-11-30T23:48:45.116Z,121.43
2022-11-30T23:51:11.952Z,104.90
2022-11-30T23:53:38.908Z,100.95
2022-11-30T23:56:08.975Z,112.68
2022-11-30T23:58:35.825Z,128.68
